createdAt,value
2018-05-25T00:02:03.604Z,99.90
2018-05-25T00:04:31.807Z,99.90
2018-05-25T00:06:59.246Z,99.90
2018-05-25T00:09:26.738Z,99.90
2018-05-25T00:11:54.177Z,99.90
2018-05-25T00:14:21.615Z,99.90
2018-05-25T00:16:49.046Z,99.90
2018-05-25T00:19:17.246Z,99.90
2018-05-25T00:21:44.682Z,99.90
2018-05-25T00:24:12.881Z,99.90
2018-05-25T00:26:40.630Z,99.90
2018-05-25T00:29:08.826Z,99.90
2018-05-25T00:31:36.267Z,99.90
2018-05-25T00:34:04.468Z,99.90
2018-05-25T00:36:31.905Z,99.90
2018-05-25T00:38:59.334Z,99.90
2018-05-25T00:41:27.537Z,99.90
2018-05-25T00:43:54.970Z,99.90
2018-05-25T00:46:23.186Z,99.90
2018-05-25T00:48:50.613Z,99.90
2018-05-25T00:51:18.818Z,99.90
2018-05-25T00:53:46.298Z,99.90
2018-05-25T00:56:13.725Z,99.90
2018-05-25T00:58:41.157Z,99.90
2018-05-25T01:01:09.366Z,99.90
2018-05-25T01:03:36.808Z,99.90
2018-05-25T01:06:04.245Z,99.90
2018-05-25T01:08:32.443Z,99.90
2018-05-25T01:10:59.886Z,99.90
2018-05-25T01:13:27.317Z,99.90
2018-05-25T01:15:54.758Z,99.90
2018-05-25T01:18:22.190Z,99.90
2018-05-25T01:20:49.634Z,99.90
2018-05-25T01:23:17.065Z,99.90
2018-05-25T01:25:45.277Z,99.90
2018-05-25T01:28:12.722Z,99.90
2018-05-25T01:30:40.158Z,99.90
2018-05-25T01:33:08.371Z,99.90
2018-05-25T01:35:35.887Z,99.90
2018-05-25T01:38:04.091Z,99.90
2018-05-25T01:40:31.564Z,99.90
2018-05-25T01:42:59.006Z,99.90
2018-05-25T01:45:26.447Z,99.90
2018-05-25T01:47:53.903Z,99.90
2018-05-25T01:50:21.326Z,99.90
2018-05-25T01:52:48.770Z,99.90
2018-05-25T01:55:16.207Z,99.90
2018-05-25T01:57:43.658Z,99.90
2018-05-25T02:00:11.106Z,99.90
2018-05-25T02:02:38.556Z,99.90
2018-05-25T02:05:05.995Z,99.90
2018-05-25T02:07:33.543Z,99.90
2018-05-25T02:10:01.954Z,99.90
2018-05-25T02:12:29.399Z,99.90
2018-05-25T02:14:56.838Z,99.90
2018-05-25T02:17:25.048Z,99.90
2018-05-25T02:19:52.492Z,99.90
2018-05-25T02:22:19.935Z,99.90
2018-05-25T02:24:48.195Z,99.90
2018-05-25T02:27:16.413Z,99.90
2018-05-25T02:29:43.934Z,99.90
2018-05-25T02:32:11.362Z,99.90
2018-05-25T02:34:38.809Z,99.90
2018-05-25T02:37:06.332Z,99.90
2018-05-25T02:39:33.786Z,99.90
2018-05-25T02:42:01.228Z,99.90
2018-05-25T02:44:29.435Z,99.90
2018-05-25T02:46:56.878Z,99.90
2018-05-25T02:49:24.317Z,99.90
2018-05-25T02:51:52.584Z,99.90
2018-05-25T02:54:20.794Z,99.90
2018-05-25T02:56:48.323Z,99.90
2018-05-25T02:59:16.523Z,99.90
2018-05-25T03:01:43.978Z,99.90
2018-05-25T03:04:11.423Z,99.90
2018-05-25T03:06:38.867Z,99.90
2018-05-25T03:09:07.080Z,99.90
2018-05-25T03:11:34.522Z,99.90
2018-05-25T03:14:01.962Z,99.90
2018-05-25T03:16:30.170Z,99.90
2018-05-25T03:18:57.618Z,99.90
2018-05-25T03:21:25.061Z,99.90
2018-05-25T03:23:52.503Z,99.90
2018-05-25T03:26:20.772Z,99.90
2018-05-25T03:28:49.048Z,99.90
2018-05-25T03:31:17.254Z,99.90
2018-05-25T03:33:44.691Z,99.90
2018-05-25T03:36:12.133Z,99.90
2018-05-25T03:38:40.335Z,99.90
2018-05-25T03:41:07.779Z,99.90
2018-05-25T03:43:35.999Z,99.90
2018-05-25T03:46:03.447Z,99.90
2018-05-25T03:48:30.894Z,99.90
2018-05-25T03:50:58.330Z,99.90
2018-05-25T03:53:26.539Z,99.90
2018-05-25T03:55:54.342Z,99.90
2018-05-25T04:01:37.438Z,99.90
2018-05-25T04:04:05.602Z,99.90
2018-05-25T04:06:33.042Z,99.90
2018-05-25T04:09:01.247Z,99.90
2018-05-25T04:11:28.688Z,99.90
2018-05-25T04:13:56.235Z,99.90
2018-05-25T04:16:24.439Z,99.90
2018-05-25T04:18:51.883Z,99.90
2018-05-25T04:21:19.327Z,99.90
2018-05-25T04:23:46.782Z,99.90
2018-05-25T04:26:15.243Z,99.90
2018-05-25T04:28:42.684Z,99.90
2018-05-25T04:31:10.150Z,99.90
2018-05-25T04:33:37.595Z,99.90
2018-05-25T04:36:05.303Z,99.90
2018-05-25T04:38:33.532Z,99.90
2018-05-25T04:43:42.331Z,99.90
2018-05-25T04:46:09.766Z,99.90
2018-05-25T04:48:37.978Z,99.90
2018-05-25T04:51:05.423Z,99.90
2018-05-25T04:53:32.951Z,99.90
2018-05-25T04:56:01.150Z,99.90
2018-05-25T04:58:28.601Z,99.90
2018-05-25T05:00:56.034Z,99.90
2018-05-25T05:03:24.242Z,99.90
2018-05-25T05:05:51.682Z,99.90
2018-05-25T05:08:19.924Z,99.90
2018-05-25T05:10:47.331Z,99.90
2018-05-25T05:13:14.779Z,99.90
2018-05-25T05:15:42.216Z,99.90
2018-05-25T05:18:10.439Z,99.90
2018-05-25T05:20:37.875Z,99.90
2018-05-25T05:23:05.344Z,99.90
2018-05-25T05:25:33.522Z,99.90
2018-05-25T05:28:00.976Z,99.90
2018-05-25T05:30:28.418Z,99.90
2018-05-25T05:32:55.862Z,99.90
2018-05-25T05:35:24.123Z,99.90
2018-05-25T05:37:52.326Z,99.90
2018-05-25T05:40:19.763Z,99.90
2018-05-25T05:42:47.562Z,99.90
2018-05-25T05:45:14.999Z,99.90
2018-05-25T05:47:42.447Z,99.90
2018-05-25T05:50:10.657Z,99.90
2018-05-25T05:52:38.094Z,99.90
2018-05-25T05:55:05.526Z,99.90
2018-05-25T05:57:33.736Z,99.90
2018-05-25T06:00:01.170Z,99.90
2018-05-25T06:02:28.619Z,99.90
2018-05-25T06:04:56.824Z,99.90
2018-05-25T06:07:24.272Z,99.90
2018-05-25T06:09:51.709Z,99.90
2018-05-25T06:12:19.990Z,99.90
2018-05-25T06:14:48.182Z,99.90
2018-05-25T06:17:15.627Z,99.90
2018-05-25T06:19:43.058Z,99.90
2018-05-25T06:22:10.498Z,99.90
2018-05-25T06:24:37.935Z,99.90
2018-05-25T06:27:05.380Z,99.90
2018-05-25T06:29:32.819Z,99.90
2018-05-25T06:32:00.255Z,99.90
2018-05-25T06:34:28.466Z,99.90
2018-05-25T06:36:55.924Z,99.90
2018-05-25T06:39:23.366Z,99.90
2018-05-25T06:41:50.803Z,99.90
2018-05-25T06:44:19.049Z,99.90
2018-05-25T06:46:46.447Z,99.90
2018-05-25T06:49:13.890Z,99.90
2018-05-25T06:51:42.103Z,99.90
2018-05-25T06:54:09.549Z,99.90
2018-05-25T06:56:37.018Z,99.90
2018-05-25T06:59:04.454Z,99.90
2018-05-25T07:01:31.893Z,99.90
2018-05-25T07:04:00.181Z,99.90
2018-05-25T07:06:28.372Z,99.90
2018-05-25T07:08:55.834Z,99.90
2018-05-25T07:11:23.266Z,99.90
2018-05-25T07:13:51.478Z,99.90
2018-05-25T07:16:18.922Z,99.90
2018-05-25T07:18:46.363Z,99.90
2018-05-25T07:21:13.807Z,99.90
2018-05-25T07:23:42.078Z,99.90
2018-05-25T07:26:10.293Z,99.90
2018-05-25T07:28:37.771Z,99.90
2018-05-25T07:31:05.298Z,99.90
2018-05-25T07:33:32.740Z,99.90
2018-05-25T07:36:00.955Z,99.90
2018-05-25T07:38:28.399Z,99.90
2018-05-25T07:40:55.835Z,99.90
2018-05-25T07:43:23.279Z,99.90
2018-05-25T07:45:51.503Z,99.90
2018-05-25T07:48:18.944Z,99.90
2018-05-25T07:50:46.402Z,99.90
2018-05-25T07:53:13.845Z,99.90
2018-05-25T07:55:41.344Z,99.90
2018-05-25T07:58:08.864Z,99.90
2018-05-25T08:00:37.052Z,99.90
2018-05-25T08:03:04.510Z,99.90
2018-05-25T08:05:31.950Z,99.90
2018-05-25T08:07:59.395Z,99.90
2018-05-25T08:10:28.621Z,99.90
2018-05-25T08:12:56.063Z,99.90
2018-05-25T08:15:23.507Z,99.90
2018-05-25T08:17:51.734Z,99.90
2018-05-25T08:20:19.167Z,99.90
2018-05-25T08:22:46.610Z,99.90
2018-05-25T08:25:14.050Z,99.90
2018-05-25T08:27:42.254Z,99.90
2018-05-25T08:30:09.700Z,99.90
2018-05-25T08:32:37.127Z,99.90
2018-05-25T08:35:05.330Z,99.90
2018-05-25T08:37:32.801Z,99.90
2018-05-25T08:40:00.220Z,99.90
2018-05-25T08:42:28.954Z,99.90
2018-05-25T08:44:56.402Z,99.90
2018-05-25T08:47:23.839Z,99.90
2018-05-25T08:49:51.286Z,99.90
2018-05-25T08:52:23.239Z,99.90
2018-05-25T08:54:51.538Z,99.90
2018-05-25T08:57:18.895Z,99.90
2018-05-25T08:59:46.334Z,99.90
2018-05-25T09:02:14.542Z,99.90
2018-05-25T09:04:41.999Z,99.90
2018-05-25T09:07:09.430Z,99.90
2018-05-25T09:09:36.870Z,99.90
2018-05-25T09:12:05.088Z,99.90
2018-05-25T09:14:32.535Z,99.90
2018-05-25T09:16:59.975Z,99.90
2018-05-25T09:22:08.006Z,99.90
2018-05-25T09:24:35.448Z,99.90
2018-05-25T09:27:03.655Z,99.90
2018-05-25T09:29:31.967Z,99.90
2018-05-25T09:31:59.402Z,99.90
2018-05-25T09:34:26.848Z,99.90
2018-05-25T09:36:54.287Z,99.90
2018-05-25T09:39:21.746Z,99.90
2018-05-25T09:41:49.215Z,99.90
2018-05-25T09:44:16.647Z,99.90
2018-05-25T09:46:44.087Z,99.90
2018-05-25T09:49:12.307Z,99.90
2018-05-25T09:51:39.746Z,99.90
2018-05-25T09:54:07.191Z,99.90
2018-05-25T09:56:35.396Z,99.90
2018-05-25T09:59:02.839Z,99.90
2018-05-25T10:01:30.278Z,99.90
2018-05-25T10:03:58.497Z,99.90
2018-05-25T10:06:25.936Z,99.90
2018-05-25T10:08:53.387Z,99.90
2018-05-25T10:11:20.823Z,99.90
2018-05-25T10:13:49.036Z,99.90
2018-05-25T10:16:16.479Z,99.90
2018-05-25T10:18:43.919Z,99.90
2018-05-25T10:21:11.364Z,99.90
2018-05-25T10:23:39.578Z,99.90
2018-05-25T10:26:07.023Z,99.90
2018-05-25T10:28:34.463Z,99.90
2018-05-25T10:31:01.909Z,99.40
2018-05-25T10:33:30.124Z,98.50
2018-05-25T10:35:57.563Z,98.50
2018-05-25T10:38:25.007Z,98.20
2018-05-25T10:40:53.227Z,97.60
2018-05-25T10:43:20.671Z,97.60
2018-05-25T10:45:48.328Z,97.60
2018-05-25T10:48:15.787Z,98.00
2018-05-25T10:50:43.239Z,97.60
2018-05-25T10:53:10.735Z,97.80
2018-05-25T10:55:38.182Z,97.10
2018-05-25T10:58:05.619Z,96.50
2018-05-25T11:00:33.075Z,96.70
2018-05-25T11:03:00.525Z,97.40
2018-05-25T11:05:27.974Z,97.10
2018-05-25T11:07:55.414Z,96.30
2018-05-25T11:10:23.620Z,95.90
2018-05-25T11:12:51.877Z,95.90
2018-05-25T11:15:20.131Z,95.70
2018-05-25T11:17:47.563Z,95.70
2018-05-25T11:20:15.014Z,95.90
2018-05-25T11:22:42.443Z,96.70
2018-05-25T11:25:09.883Z,95.50
2018-05-25T11:27:37.328Z,95.40
2018-05-25T11:30:05.675Z,96.10
2018-05-25T11:32:33.111Z,96.10
2018-05-25T11:35:00.566Z,95.10
2018-05-25T11:37:28.008Z,94.20
2018-05-25T11:39:55.457Z,93.80
2018-05-25T11:42:22.890Z,94.90
2018-05-25T11:44:50.340Z,95.00
2018-05-25T11:47:18.547Z,96.40
2018-05-25T11:49:45.994Z,96.40
2018-05-25T11:52:13.427Z,96.90
2018-05-25T11:54:41.640Z,95.40
2018-05-25T11:57:09.098Z,95.40
2018-05-25T11:59:36.548Z,96.00
2018-05-25T12:02:03.980Z,95.70
2018-05-25T12:04:32.191Z,95.40
2018-05-25T12:06:59.626Z,95.40
2018-05-25T12:09:27.651Z,95.50
2018-05-25T12:11:55.079Z,95.30
2018-05-25T12:14:22.531Z,95.90
2018-05-25T12:16:49.958Z,95.70
2018-05-25T12:19:17.403Z,95.60
2018-05-25T12:21:45.609Z,95.70
2018-05-25T12:24:13.052Z,95.60
2018-05-25T12:26:40.491Z,95.60
2018-05-25T12:29:08.707Z,96.60
2018-05-25T12:31:36.191Z,96.50
2018-05-25T12:34:03.619Z,96.80
2018-05-25T12:36:31.064Z,94.70
2018-05-25T12:38:58.507Z,94.40
2018-05-25T12:41:25.943Z,94.90
2018-05-25T12:43:54.168Z,95.40
2018-05-25T12:46:22.607Z,95.40
2018-05-25T12:48:50.822Z,94.80
2018-05-25T12:51:18.259Z,94.80
2018-05-25T12:53:45.698Z,93.50
2018-05-25T12:56:13.899Z,92.20
2018-05-25T12:58:41.333Z,92.20
2018-05-25T13:01:09.541Z,93.00
2018-05-25T13:03:36.994Z,93.00
2018-05-25T13:06:04.423Z,93.00
2018-05-25T13:08:32.615Z,93.40
2018-05-25T13:11:00.052Z,93.40
2018-05-25T13:13:28.315Z,94.60
2018-05-25T13:15:55.758Z,94.60
2018-05-25T13:18:23.182Z,94.30
2018-05-25T13:20:50.639Z,94.60
2018-05-25T13:23:18.136Z,93.70
2018-05-25T13:25:45.603Z,94.90
2018-05-25T13:28:15.071Z,92.80
2018-05-25T13:30:43.800Z,92.70
2018-05-25T13:33:12.003Z,92.80
2018-05-25T13:35:39.442Z,92.80
2018-05-25T13:38:07.645Z,93.10
2018-05-25T13:40:35.080Z,93.10
2018-05-25T13:43:02.527Z,93.00
2018-05-25T13:45:30.743Z,94.20
2018-05-25T13:47:58.175Z,94.20
2018-05-25T13:50:25.623Z,95.20
2018-05-25T13:52:53.811Z,93.50
2018-05-25T13:55:21.254Z,93.60
2018-05-25T13:57:49.715Z,91.60
2018-05-25T14:00:17.147Z,91.60
2018-05-25T14:02:44.576Z,90.10
2018-05-25T14:05:12.088Z,88.60
2018-05-25T14:07:39.504Z,88.50
2018-05-25T14:10:07.711Z,90.40
2018-05-25T14:12:35.134Z,90.10
2018-05-25T14:15:02.577Z,91.40
2018-05-25T14:17:30.099Z,92.00
2018-05-25T14:19:58.306Z,90.70
2018-05-25T14:22:25.727Z,90.70
2018-05-25T14:24:53.930Z,91.20
2018-05-25T14:27:21.364Z,91.20
2018-05-25T14:29:49.560Z,91.80
2018-05-25T14:32:16.987Z,91.70
2018-05-25T14:34:45.202Z,93.10
2018-05-25T14:37:12.624Z,93.10
2018-05-25T14:39:40.895Z,91.20
2018-05-25T14:42:09.100Z,89.30
2018-05-25T14:44:37.338Z,87.90
2018-05-25T14:47:04.779Z,87.80
2018-05-25T14:49:32.223Z,88.50
2018-05-25T14:51:59.661Z,88.60
2018-05-25T14:54:27.098Z,90.00
2018-05-25T14:56:54.535Z,89.50
2018-05-25T14:59:22.734Z,88.80
2018-05-25T15:01:50.169Z,88.80
2018-05-25T15:04:18.443Z,87.30
2018-05-25T15:06:46.741Z,86.50
2018-05-25T15:09:14.083Z,86.50
2018-05-25T15:11:42.287Z,89.40
2018-05-25T15:14:10.647Z,89.30
2018-05-25T15:16:38.091Z,87.50
2018-05-25T15:19:06.292Z,88.50
2018-05-25T15:21:33.812Z,88.50
2018-05-25T15:24:02.011Z,90.50
2018-05-25T15:26:29.446Z,90.50
2018-05-25T15:28:57.647Z,89.90
2018-05-25T15:31:25.078Z,89.80
2018-05-25T15:33:53.283Z,90.30
2018-05-25T15:36:20.715Z,90.20
2018-05-25T15:38:48.914Z,88.00
2018-05-25T15:41:16.352Z,88.00
2018-05-25T15:43:44.542Z,89.40
2018-05-25T15:46:12.075Z,89.40
2018-05-25T15:48:40.275Z,90.60
2018-05-25T15:51:07.712Z,90.60
2018-05-25T15:53:35.975Z,88.60
2018-05-25T15:56:03.443Z,88.50
2018-05-25T15:58:31.639Z,90.00
2018-05-25T16:00:59.080Z,90.00
2018-05-25T16:03:27.275Z,90.90
2018-05-25T16:05:54.802Z,90.80
2018-05-25T16:08:22.235Z,91.20
2018-05-25T16:10:49.687Z,92.00
2018-05-25T16:13:17.136Z,92.80
2018-05-25T16:15:44.573Z,93.20
2018-05-25T16:18:12.005Z,93.00
2018-05-25T16:20:39.571Z,93.20
2018-05-25T16:23:07.009Z,93.40
2018-05-25T16:25:35.483Z,93.70
2018-05-25T16:28:03.690Z,93.90
2018-05-25T16:30:31.125Z,93.90
2018-05-25T16:32:59.382Z,94.00
2018-05-25T16:35:26.823Z,94.00
2018-05-25T16:37:54.260Z,94.20
2018-05-25T16:40:21.691Z,94.50
2018-05-25T16:42:49.132Z,94.60
2018-05-25T16:45:17.395Z,94.40
2018-05-25T16:47:45.586Z,94.90
2018-05-25T16:50:13.032Z,94.70
2018-05-25T16:52:40.442Z,94.90
2018-05-25T16:55:07.892Z,95.20
2018-05-25T16:57:35.322Z,95.10
2018-05-25T17:00:02.763Z,95.20
2018-05-25T17:02:30.959Z,95.40
2018-05-25T17:04:58.408Z,95.40
2018-05-25T17:07:25.834Z,95.20
2018-05-25T17:09:53.269Z,95.30
2018-05-25T17:12:20.704Z,95.00
2018-05-25T17:14:48.135Z,95.20
2018-05-25T17:17:15.575Z,95.10
2018-05-25T17:19:43.834Z,94.80
2018-05-25T17:22:24.566Z,94.80
2018-05-25T17:24:52.075Z,95.10
2018-05-25T17:27:20.290Z,95.60
2018-05-25T17:29:47.710Z,95.60
2018-05-25T17:32:15.911Z,96.00
2018-05-25T17:34:43.387Z,96.00
2018-05-25T17:37:10.816Z,95.70
2018-05-25T17:39:38.248Z,95.80
2018-05-25T17:42:05.720Z,95.30
2018-05-25T17:44:33.911Z,96.10
2018-05-25T17:47:01.348Z,96.10
2018-05-25T17:49:29.539Z,96.10
2018-05-25T17:51:56.974Z,96.10
2018-05-25T17:54:25.189Z,95.70
2018-05-25T17:56:52.697Z,95.70
2018-05-25T17:59:20.074Z,95.90
2018-05-25T18:01:48.276Z,96.40
2018-05-25T18:04:15.705Z,96.40
2018-05-25T18:06:43.970Z,96.30
2018-05-25T18:09:13.152Z,96.50
2018-05-25T18:11:40.592Z,96.40
2018-05-25T18:14:08.020Z,96.40
2018-05-25T18:16:35.467Z,96.50
2018-05-25T18:19:27.216Z,96.70
2018-05-25T18:21:54.650Z,96.90
2018-05-25T18:27:27.290Z,97.40
2018-05-25T18:29:54.723Z,98.50
2018-05-25T18:32:23.162Z,98.00
2018-05-25T18:34:51.365Z,97.90
2018-05-25T18:37:37.994Z,97.90
2018-05-25T18:40:05.559Z,98.40
2018-05-25T18:42:32.997Z,98.20
2018-05-25T18:45:00.509Z,98.40
2018-05-25T18:47:27.897Z,98.90
2018-05-25T18:49:55.351Z,99.30
2018-05-25T18:52:22.787Z,99.70
2018-05-25T18:54:52.230Z,99.90
2018-05-25T18:57:24.046Z,99.90
2018-05-25T18:59:52.250Z,99.70
2018-05-25T19:02:19.699Z,99.70
2018-05-25T19:04:47.172Z,99.80
2018-05-25T19:10:12.967Z,99.90
2018-05-25T19:12:40.400Z,99.90
2018-05-25T19:15:07.875Z,99.90
2018-05-25T19:17:35.312Z,99.90
2018-05-25T19:20:02.751Z,99.90
2018-05-25T19:22:30.201Z,99.90
2018-05-25T19:24:57.651Z,99.90
2018-05-25T19:27:25.083Z,99.90
2018-05-25T19:29:53.281Z,99.90
2018-05-25T19:32:20.732Z,99.90
2018-05-25T19:34:48.919Z,99.90
2018-05-25T19:37:16.346Z,99.90
2018-05-25T19:39:44.619Z,99.90
2018-05-25T19:42:12.855Z,99.90
2018-05-25T19:44:43.374Z,99.90
2018-05-25T19:47:10.814Z,99.90
2018-05-25T19:49:38.267Z,99.90
2018-05-25T19:52:05.716Z,99.90
2018-05-25T19:54:33.134Z,99.90
2018-05-25T19:57:00.579Z,99.90
2018-05-25T19:59:28.014Z,99.90
2018-05-25T20:01:55.442Z,99.90
2018-05-25T20:04:22.880Z,99.90
2018-05-25T20:06:51.147Z,99.90
2018-05-25T20:09:19.617Z,99.90
2018-05-25T20:11:47.052Z,99.90
2018-05-25T20:14:14.491Z,99.90
2018-05-25T20:16:41.935Z,99.90
2018-05-25T20:19:10.383Z,99.90
2018-05-25T20:21:38.595Z,99.90
2018-05-25T20:24:06.032Z,99.90
2018-05-25T20:26:33.467Z,99.90
2018-05-25T20:29:01.663Z,99.90
2018-05-25T20:31:29.099Z,99.90
2018-05-25T20:33:57.450Z,99.90
2018-05-25T20:36:24.944Z,99.90
2018-05-25T20:38:53.134Z,99.90
2018-05-25T20:41:20.582Z,99.90
2018-05-25T20:43:48.783Z,99.90
2018-05-25T20:46:16.227Z,99.90
2018-05-25T20:48:43.651Z,99.90
2018-05-25T20:51:11.870Z,99.90
2018-05-25T20:53:39.299Z,99.90
2018-05-25T20:56:08.741Z,99.90
2018-05-25T20:58:36.156Z,99.90
2018-05-25T21:01:04.363Z,99.90
2018-05-25T21:03:31.796Z,99.90
2018-05-25T21:05:59.231Z,99.90
2018-05-25T21:08:27.436Z,99.90
2018-05-25T21:10:54.872Z,99.90
2018-05-25T21:13:23.068Z,99.90
2018-05-25T21:15:51.934Z,99.90
2018-05-25T21:18:19.594Z,99.90
2018-05-25T21:20:47.809Z,99.90
2018-05-25T21:23:15.239Z,99.90
2018-05-25T21:25:43.441Z,99.90
2018-05-25T21:28:10.887Z,99.90
2018-05-25T21:30:38.315Z,99.90
2018-05-25T21:33:06.516Z,99.90
2018-05-25T21:35:33.941Z,99.90
2018-05-25T21:38:01.403Z,99.90
2018-05-25T21:40:29.596Z,99.90
2018-05-25T21:42:57.027Z,99.90
2018-05-25T21:45:25.223Z,99.90
2018-05-25T21:47:53.392Z,99.90
2018-05-25T21:50:21.583Z,99.90
2018-05-25T21:52:49.015Z,99.90
2018-05-25T21:55:17.210Z,99.90
2018-05-25T21:57:44.643Z,99.90
2018-05-25T22:00:12.848Z,99.90
2018-05-25T22:02:41.304Z,99.90
2018-05-25T22:05:09.499Z,99.90
2018-05-25T22:07:36.946Z,99.90
2018-05-25T22:10:05.135Z,99.90
2018-05-25T22:12:32.572Z,99.90
2018-05-25T22:15:00.780Z,99.90
2018-05-25T22:17:28.218Z,99.90
2018-05-25T22:19:55.647Z,99.90
2018-05-25T22:22:23.855Z,99.90
2018-05-25T22:24:51.287Z,99.90
2018-05-25T22:27:19.553Z,99.90
2018-05-25T22:29:46.967Z,99.90
2018-05-25T22:32:14.414Z,99.90
2018-05-25T22:34:41.847Z,99.90
2018-05-25T22:37:09.290Z,99.90
2018-05-25T22:39:37.483Z,99.90
2018-05-25T22:42:04.427Z,99.90
2018-05-25T22:44:43.562Z,99.90
2018-05-25T22:47:22.924Z,99.90
2018-05-25T22:50:02.340Z,99.90
2018-05-25T22:52:34.949Z,99.90
2018-05-25T22:55:02.385Z,99.90
2018-05-25T22:57:29.822Z,99.90
2018-05-25T22:59:57.258Z,99.90
2018-05-25T23:02:25.461Z,99.90
2018-05-25T23:04:52.888Z,99.90
2018-05-25T23:07:21.102Z,99.90
2018-05-25T23:09:48.539Z,99.90
2018-05-25T23:12:16.743Z,99.90
2018-05-25T23:14:44.177Z,99.90
2018-05-25T23:17:11.652Z,99.90
2018-05-25T23:19:39.084Z,99.90
2018-05-25T23:22:06.518Z,99.90
2018-05-25T23:24:34.720Z,99.90
2018-05-25T23:27:02.159Z,99.90
2018-05-25T23:29:30.372Z,99.90
2018-05-25T23:31:57.810Z,99.90
2018-05-25T23:34:25.247Z,99.90
2018-05-25T23:36:53.460Z,99.90
2018-05-25T23:39:20.891Z,99.90
2018-05-25T23:41:48.336Z,99.90
2018-05-25T23:44:16.539Z,99.90
2018-05-25T23:46:43.983Z,99.90
2018-05-25T23:49:11.428Z,99.90
2018-05-25T23:51:39.623Z,99.90
2018-05-25T23:54:07.071Z,99.90
2018-05-25T23:56:34.507Z,99.90
2018-05-25T23:59:02.710Z,99.90
